Time;durP1;ratioP1;P1;durP2;ratioP2;P2;SDS_P1;SDS_P2;PMS_P1;PMS_P2;Temp;Humidity;BMP_temperature;BMP_pressure;BME280_temperature;BME280_humidity;BME280_pressure;Samples;Min_cycle;Max_cycle;Signal;HPM_P1;HPM_P2
2022/08/21 00:00:14;;;;;;;10.23;4.57;;;;;;;21.58;71.94;98052.63;4460380;32;20489;-85
2022/08/21 00:02:52;;;;;;;9.90;3.80;;;;;;;20.94;75.01;98051.72;4487547;32;20096;-85
2022/08/21 00:05:19;;;;;;;11.82;4.32;;;;;;;21.28;73.46;98051.50;4473343;32;20156;-85
2022/08/21 00:07:44;;;;;;;10.95;4.32;;;;;;;20.93;75.02;98055.38;4473159;32;20099;-85
2022/08/21 00:10:11;;;;;;;11.23;4.53;;;;;;;21.15;74.20;98056.53;4487362;32;20085;-85
2022/08/21 00:12:36;;;;;;;9.93;4.57;;;;;;;21.11;74.32;98060.56;4473411;32;20178;-85
2022/08/21 00:15:04;;;;;;;10.05;4.65;;;;;;;21.27;73.27;98054.34;4473419;32;20120;-84
2022/08/21 00:17:30;;;;;;;11.68;6.10;;;;;;;21.03;74.42;98048.00;4487395;32;20093;-85
2022/08/21 00:19:55;;;;;;;10.30;4.32;;;;;;;20.66;76.21;98044.00;4487316;32;20076;-85
2022/08/21 00:22:20;;;;;;;9.57;4.60;;;;;;;21.13;73.99;98048.69;4487366;32;20096;-85
2022/08/21 00:24:46;;;;;;;12.45;4.55;;;;;;;20.93;74.80;98040.13;4487679;32;20114;-85
2022/08/21 00:27:11;;;;;;;12.13;4.35;;;;;;;21.31;72.56;98031.59;4487501;32;20147;-85
2022/08/21 00:29:37;;;;;;;11.15;4.60;;;;;;;21.25;73.04;98029.56;4473235;32;20088;-85
2022/08/21 00:32:02;;;;;;;10.40;4.80;;;;;;;21.12;73.53;98030.09;4487471;32;20111;-85
2022/08/21 00:34:28;;;;;;;11.80;5.30;;;;;;;21.09;73.64;98043.81;4472855;32;20104;-85
2022/08/21 00:36:53;;;;;;;11.12;5.07;;;;;;;20.67;76.24;98034.97;4487229;32;20076;-85
2022/08/21 00:39:19;;;;;;;11.88;5.20;;;;;;;20.65;76.40;98045.00;4487204;32;20111;-85
2022/08/21 00:41:44;;;;;;;11.57;5.20;;;;;;;20.87;74.98;98040.00;4487235;32;20097;-85
2022/08/21 00:44:12;;;;;;;10.45;4.90;;;;;;;20.69;76.09;98035.63;4487270;32;20092;-85
2022/08/21 00:46:38;;;;;;;12.60;4.80;;;;;;;21.01;74.39;98040.16;4472886;32;20088;-85
2022/08/21 00:49:05;;;;;;;10.57;4.82;;;;;;;21.02;74.31;98039.12;4469978;32;20088;-85
2022/08/21 00:51:37;;;;;;;11.77;5.35;;;;;;;21.06;74.07;98044.16;4470327;32;20101;-85
2022/08/21 00:54:03;;;;;;;12.37;6.35;;;;;;;21.07;73.79;98035.94;4456448;32;20528;-85
2022/08/21 00:56:28;;;;;;;11.57;5.55;;;;;;;20.90;74.67;98032.47;4470592;32;20076;-85
2022/08/21 00:58:55;;;;;;;12.20;6.30;;;;;;;20.81;75.02;98034.28;4470506;32;20446;-85
2022/08/21 01:01:21;;;;;;;12.85;6.12;;;;;;;20.68;75.73;98038.47;4470454;32;20112;-85
2022/08/21 01:03:47;;;;;;;13.10;5.62;;;;;;;20.32;77.76;98038.72;4471612;32;20096;-85
2022/08/21 01:06:13;;;;;;;12.75;6.07;;;;;;;20.18;78.23;98027.66;4470456;32;20118;-85
2022/08/21 01:08:38;;;;;;;13.00;6.20;;;;;;;20.40;77.35;98036.06;4471501;32;20093;-85
2022/08/21 01:11:04;;;;;;;11.80;5.62;;;;;;;20.57;76.78;98029.75;4471539;32;20134;-85
2022/08/21 01:13:33;;;;;;;13.32;6.37;;;;;;;20.92;74.67;98035.81;4470195;32;20151;-85
2022/08/21 01:15:59;;;;;;;12.63;6.53;;;;;;;20.47;76.73;98031.72;4470140;32;20084;-85
2022/08/21 01:18:26;;;;;;;12.70;6.70;;;;;;;20.70;76.13;98028.44;4470098;32;20084;-85
2022/08/21 01:21:01;;;;;;;13.40;6.87;;;;;;;20.65;76.22;98026.28;4470119;32;20126;-85
2022/08/21 01:23:26;;;;;;;14.60;6.78;;;;;;;20.54;77.01;98029.25;4471286;32;20123;-85
2022/08/21 01:25:51;;;;;;;14.52;6.32;;;;;;;20.50;77.22;98018.03;4470947;32;20136;-85
2022/08/21 01:28:17;;;;;;;14.75;7.25;;;;;;;20.77;75.45;98022.25;4470985;32;20126;-85
2022/08/21 01:30:43;;;;;;;13.98;7.00;;;;;;;20.59;76.75;98021.53;4471156;32;20093;-85
2022/08/21 01:33:09;;;;;;;13.23;7.40;;;;;;;20.71;75.69;98016.75;4469996;32;20130;-85
2022/08/21 01:35:34;;;;;;;14.35;7.05;;;;;;;20.71;75.91;98027.44;4471109;32;20100;-85
2022/08/21 01:38:00;;;;;;;15.73;7.20;;;;;;;20.47;76.71;98023.69;4469830;32;20472;-85
2022/08/21 01:40:27;;;;;;;15.48;7.60;;;;;;;20.54;76.67;98016.69;4471016;32;20097;-85
2022/08/21 01:42:53;;;;;;;14.23;7.43;;;;;;;20.60;76.75;98020.56;4471103;32;20104;-85
2022/08/21 01:45:19;;;;;;;13.90;6.70;;;;;;;20.26;77.97;98015.31;4470968;32;20160;-85
2022/08/21 01:47:45;;;;;;;13.20;6.57;;;;;;;20.58;76.80;98017.19;4470568;32;20101;-85
2022/08/21 01:50:13;;;;;;;15.23;7.30;;;;;;;20.71;75.90;98017.56;4486832;32;20089;-85
2022/08/21 01:52:38;;;;;;;15.10;7.68;;;;;;;20.13;79.10;98029.16;4472334;32;20439;-85
2022/08/21 01:55:06;;;;;;;14.55;7.20;;;;;;;20.04;80.43;98015.75;4486558;32;20104;-85
2022/08/21 01:57:32;;;;;;;15.55;7.75;;;;;;;19.84;81.60;98017.88;4472257;32;20088;-85
2022/08/21 01:59:58;;;;;;;14.82;7.35;;;;;;;20.09;79.93;98009.06;4472200;32;20168;-85
2022/08/21 02:02:23;;;;;;;14.13;6.85;;;;;;;20.36;78.03;98019.50;4472112;32;20504;-85
2022/08/21 02:04:48;;;;;;;14.10;7.35;;;;;;;20.29;77.77;98015.00;4487477;32;20060;-85
2022/08/21 02:07:14;;;;;;;14.15;6.75;;;;;;;20.22;78.39;98010.31;4488276;32;20107;-85
2022/08/21 02:09:42;;;;;;;14.85;7.15;;;;;;;20.25;78.64;98017.16;4488269;32;20156;-85
2022/08/21 02:12:08;;;;;;;;;;;;;;;20.43;77.44;98020.50;4474158;32;20112;-85
2022/08/21 02:14:34;;;;;;;16.77;6.70;;;;;;;20.89;75.04;98012.03;4474325;32;20024;-85
2022/08/21 02:17:00;;;;;;;15.25;6.82;;;;;;;20.91;74.47;98018.06;4488247;32;20073;-85
2022/08/21 02:19:25;;;;;;;13.27;6.65;;;;;;;20.63;75.94;98012.22;4473919;32;20160;-85
2022/08/21 02:21:51;;;;;;;16.52;7.43;;;;;;;20.48;76.84;98013.84;4488242;32;20474;-85
2022/08/21 02:24:16;;;;;;;14.38;7.65;;;;;;;20.60;75.85;98010.69;4488127;32;20420;-85
2022/08/21 02:26:42;;;;;;;15.77;8.15;;;;;;;20.26;77.53;98015.31;4488036;32;20108;-85
2022/08/21 02:29:07;;;;;;;16.17;7.60;;;;;;;20.30;78.07;98020.19;4488045;32;20096;-85
2022/08/21 02:31:33;;;;;;;14.82;6.78;;;;;;;20.05;79.47;98019.28;4473938;32;20434;-85
2022/08/21 02:33:59;;;;;;;17.62;7.37;;;;;;;20.39;77.78;98023.69;4473866;32;20084;-85
2022/08/21 02:36:25;;;;;;;17.62;7.53;;;;;;;20.80;75.10;98013.91;4473795;32;20340;-85
2022/08/21 02:38:50;;;;;;;15.57;8.10;;;;;;;20.71;75.69;98022.09;4473720;32;20482;-85
2022/08/21 02:41:19;;;;;;;14.87;7.35;;;;;;;20.28;78.29;98015.97;4488327;32;20141;-85
2022/08/21 02:43:45;;;;;;;15.90;7.95;;;;;;;20.15;78.26;98013.78;4488222;32;20151;-85
2022/08/21 02:46:14;;;;;;;17.08;7.60;;;;;;;20.22;78.58;98012.13;4473776;32;20360;-85
2022/08/21 02:48:39;;;;;;;16.05;8.32;;;;;;;20.45;77.15;98006.16;4487990;32;20084;-84
2022/08/21 02:51:12;;;;;;;16.67;8.50;;;;;;;20.55;76.59;98002.31;4488175;32;20142;-85
2022/08/21 02:53:38;;;;;;;16.83;7.55;;;;;;;20.82;74.94;98003.00;4474027;32;20439;-85
2022/08/21 02:56:06;;;;;;;17.83;8.32;;;;;;;20.16;78.28;98002.91;4473897;32;20081;-85
2022/08/21 02:58:35;;;;;;;17.55;8.13;;;;;;;20.17;78.55;98001.94;4488238;32;20494;-85
2022/08/21 03:01:01;;;;;;;17.98;8.27;;;;;;;20.10;79.64;97994.72;4473981;32;20096;-85
2022/08/21 03:03:27;;;;;;;18.45;8.43;;;;;;;20.76;75.33;98001.00;4474023;32;20127;-85
2022/08/21 03:05:54;;;;;;;15.90;7.82;;;;;;;20.32;77.29;98001.28;4473907;32;20159;-85
2022/08/21 03:08:20;;;;;;;15.50;7.43;;;;;;;20.74;75.58;98001.16;4473628;32;20131;-85
2022/08/21 03:10:50;;;;;;;16.52;7.55;;;;;;;20.64;76.12;98005.84;4473756;32;20096;-85
2022/08/21 03:13:17;;;;;;;15.80;7.62;;;;;;;20.69;75.70;98005.38;4487868;32;20119;-85
2022/08/21 03:15:42;;;;;;;18.62;8.02;;;;;;;20.67;75.82;98010.88;4473152;32;20084;-85
2022/08/21 03:18:09;;;;;;;17.58;9.13;;;;;;;20.31;78.04;98007.62;4487845;32;20179;-85
2022/08/21 03:20:35;;;;;;;17.20;8.27;;;;;;;20.79;75.24;98008.69;4487875;32;20110;-85
2022/08/21 03:23:03;;;;;;;14.50;7.40;;;;;;;20.15;78.66;98000.44;4487775;32;20084;-85
2022/08/21 03:25:31;;;;;;;16.52;8.05;;;;;;;20.78;75.20;98007.03;4487769;32;20072;-85
2022/08/21 03:27:57;;;;;;;16.67;7.68;;;;;;;20.58;76.51;98010.00;4487846;32;20097;-85
2022/08/21 03:30:22;;;;;;;17.77;8.40;;;;;;;20.63;75.82;98006.88;4487672;32;20112;-85
2022/08/21 03:32:48;;;;;;;18.12;8.20;;;;;;;20.65;75.70;98009.34;4487614;32;20089;-85
2022/08/21 03:35:13;;;;;;;15.98;7.70;;;;;;;20.60;75.86;98008.03;4473689;32;20105;-85
2022/08/21 03:37:39;;;;;;;15.60;8.18;;;;;;;20.75;75.29;98004.69;4487738;32;20080;-85
2022/08/21 03:40:06;;;;;;;16.60;8.00;;;;;;;20.85;74.81;98007.19;4473444;32;20122;-85
2022/08/21 03:42:32;;;;;;;17.80;8.60;;;;;;;20.76;75.04;98012.53;4473453;32;20412;-85
2022/08/21 03:44:57;;;;;;;17.67;8.23;;;;;;;20.65;75.25;98004.87;4487528;32;20098;-85
2022/08/21 03:47:23;;;;;;;17.08;8.05;;;;;;;20.76;75.08;98007.19;4487517;32;20126;-85
2022/08/21 03:49:48;;;;;;;14.98;8.13;;;;;;;20.71;75.57;98009.53;4460223;32;20120;-85
2022/08/21 03:52:15;;;;;;;16.95;8.15;;;;;;;20.86;74.56;98007.03;4487821;32;20088;-85
2022/08/21 03:54:40;;;;;;;14.95;8.00;;;;;;;20.59;76.15;98005.47;4473484;32;20084;-85
2022/08/21 03:57:06;;;;;;;16.87;8.25;;;;;;;21.01;74.18;98012.53;4487526;32;20089;-85
2022/08/21 03:59:31;;;;;;;16.50;8.18;;;;;;;20.83;74.93;98015.38;4487581;32;20138;-85
2022/08/21 04:01:59;;;;;;;16.33;7.80;;;;;;;20.17;78.25;98019.81;4487470;32;20158;-85
2022/08/21 04:04:27;;;;;;;16.02;8.52;;;;;;;20.66;76.03;98013.72;4473178;32;20179;-85
2022/08/21 04:06:53;;;;;;;;;;;;;;;20.89;74.45;98016.56;4487845;32;20565;-85
2022/08/21 04:09:19;;;;;;;18.95;8.73;;;;;;;20.80;75.31;98013.03;4487462;32;19976;-85
2022/08/21 04:11:45;;;;;;;17.15;8.45;;;;;;;20.78;74.67;98023.06;4487403;32;20114;-85
2022/08/21 04:14:11;;;;;;;17.98;9.27;;;;;;;20.37;77.52;98031.88;4487490;32;20084;-85
2022/08/21 04:16:37;;;;;;;18.58;9.30;;;;;;;20.37;77.94;98026.53;4487408;32;20145;-84
2022/08/21 04:19:02;;;;;;;18.80;9.13;;;;;;;20.47;77.28;98031.72;4487418;32;20388;-85
2022/08/21 04:21:28;;;;;;;15.95;8.10;;;;;;;20.46;77.18;98035.41;4473130;32;20415;-84
2022/08/21 04:23:56;;;;;;;17.00;8.65;;;;;;;20.88;75.01;98030.94;4487275;32;20080;-84
2022/08/21 04:26:22;;;;;;;15.82;8.38;;;;;;;20.65;75.83;98041.47;4487360;32;20108;-85
2022/08/21 04:28:48;;;;;;;16.55;7.90;;;;;;;20.54;76.59;98039.94;4486098;32;20093;-84
2022/08/21 04:31:13;;;;;;;15.90;8.30;;;;;;;20.90;74.86;98043.16;4473046;32;20092;-85
2022/08/21 04:33:38;;;;;;;16.35;7.68;;;;;;;20.65;75.81;98038.78;4487210;32;20093;-85
2022/08/21 04:36:05;;;;;;;16.80;8.45;;;;;;;21.15;73.44;98043.13;4487458;32;20096;-85
2022/08/21 04:38:31;;;;;;;15.82;8.50;;;;;;;20.81;74.91;98045.00;4487421;32;20122;-85
2022/08/21 04:40:57;;;;;;;17.52;8.20;;;;;;;21.04;74.21;98043.50;4473018;32;20144;-85
2022/08/21 04:43:23;;;;;;;15.65;8.15;;;;;;;21.08;73.71;98044.84;4472840;32;20100;-85
2022/08/21 04:45:49;;;;;;;16.42;8.27;;;;;;;20.88;74.49;98045.19;4473060;32;20468;-85
2022/08/21 04:48:18;;;;;;;18.20;10.10;;;;;;;20.74;74.77;98040.47;4486830;32;20172;-84
2022/08/21 04:50:49;;;;;;;17.48;8.68;;;;;;;20.88;74.60;98044.31;4473068;32;20088;-85
2022/08/21 04:53:22;;;;;;;16.83;8.60;;;;;;;20.78;75.08;98050.69;4472932;32;20426;-85
2022/08/21 04:55:48;;;;;;;16.20;7.82;;;;;;;20.56;76.15;98048.63;4487174;32;20118;-85
2022/08/21 04:58:17;;;;;;;16.45;7.90;;;;;;;20.83;74.61;98046.69;4487064;32;20081;-85
2022/08/21 05:00:44;;;;;;;17.25;7.50;;;;;;;20.60;76.08;98060.72;4472888;32;20159;-84
2022/08/21 05:03:11;;;;;;;14.85;7.28;;;;;;;20.95;73.93;98054.19;4472841;32;20104;-85
2022/08/21 05:05:36;;;;;;;14.07;7.15;;;;;;;21.35;71.46;98063.22;4473138;32;20139;-85
2022/08/21 05:08:02;;;;;;;16.00;7.70;;;;;;;21.21;72.18;98062.06;4487094;32;20577;-85
2022/08/21 05:10:28;;;;;;;13.38;7.03;;;;;;;20.70;74.47;98060.56;4473016;32;20091;-85
2022/08/21 05:12:54;;;;;;;14.93;6.78;;;;;;;20.46;75.32;98062.16;4473125;32;20416;-85
2022/08/21 05:15:20;;;;;;;13.60;7.22;;;;;;;20.54;75.48;98059.50;4487282;32;20088;-84
2022/08/21 05:17:46;;;;;;;14.43;6.50;;;;;;;20.75;74.06;98069.75;4487203;32;20473;-85
2022/08/21 05:20:12;;;;;;;14.27;6.62;;;;;;;21.05;72.65;98062.06;4487297;32;20088;-84
2022/08/21 05:22:37;;;;;;;13.05;6.85;;;;;;;21.11;72.36;98063.22;4472880;32;20106;-85
2022/08/21 05:25:04;;;;;;;12.37;6.60;;;;;;;20.59;74.29;98070.59;4472813;32;20172;-85
2022/08/21 05:27:30;;;;;;;16.62;7.50;;;;;;;21.04;72.61;98059.56;4472850;32;20493;-85
2022/08/21 05:29:56;;;;;;;13.25;6.57;;;;;;;20.82;72.93;98064.56;4487092;32;20076;-84
2022/08/21 05:32:22;;;;;;;15.25;7.25;;;;;;;20.79;73.16;98063.06;4472675;32;20427;-85
2022/08/21 05:34:47;;;;;;;13.13;6.32;;;;;;;20.97;72.68;98070.09;4472593;32;20104;-85
2022/08/21 05:37:13;;;;;;;13.93;6.72;;;;;;;21.28;70.99;98077.44;4486789;32;20104;-85
2022/08/21 05:39:39;;;;;;;12.75;6.25;;;;;;;21.13;71.27;98069.25;4486206;32;20112;-85
2022/08/21 05:42:04;;;;;;;13.82;7.18;;;;;;;21.15;71.26;98073.44;4486603;32;20084;-85
2022/08/21 05:44:30;;;;;;;14.20;6.37;;;;;;;21.25;70.89;98070.59;4486785;32;20119;-85
2022/08/21 05:47:02;;;;;;;12.95;6.22;;;;;;;21.20;71.15;98070.25;4481858;32;150072;-84
2022/08/21 05:49:28;;;;;;;12.82;6.22;;;;;;;20.86;72.75;98063.25;4486456;32;20109;-85
2022/08/21 05:51:53;;;;;;;13.88;5.70;;;;;;;21.22;70.70;98057.53;4486549;32;20136;-85
2022/08/21 05:54:19;;;;;;;11.80;5.80;;;;;;;21.13;71.36;98056.72;4472122;32;20128;-85
2022/08/21 05:56:44;;;;;;;11.43;5.47;;;;;;;21.45;70.01;98056.87;4486512;32;20120;-85
2022/08/21 05:59:10;;;;;;;12.43;5.50;;;;;;;21.30;70.29;98060.19;4486360;32;20076;-84
2022/08/21 06:01:36;;;;;;;13.30;5.87;;;;;;;21.27;70.17;98067.75;4486389;32;20089;-84
2022/08/21 06:04:01;;;;;;;12.10;5.68;;;;;;;20.84;71.82;98067.91;4486694;32;20112;-85
2022/08/21 06:06:27;;;;;;;13.05;5.80;;;;;;;21.12;70.71;98059.56;4472300;32;20132;-84
2022/08/21 06:08:52;;;;;;;13.00;6.03;;;;;;;21.37;69.50;98063.88;4472244;32;20124;-85
2022/08/21 06:11:18;;;;;;;12.77;6.03;;;;;;;21.35;69.87;98065.06;4486514;32;20119;-85
2022/08/21 06:13:43;;;;;;;13.40;6.05;;;;;;;21.11;71.24;98063.22;4472202;32;20123;-85
2022/08/21 06:16:12;;;;;;;11.40;5.37;;;;;;;21.16;70.46;98058.22;4486506;32;20463;-85
2022/08/21 06:18:38;;;;;;;11.63;5.20;;;;;;;21.27;70.17;98060.56;4486432;32;20383;-84
2022/08/21 06:21:04;;;;;;;13.57;5.75;;;;;;;21.46;69.28;98058.53;4486168;32;20080;-85
2022/08/21 06:23:29;;;;;;;12.25;6.05;;;;;;;21.54;69.09;98056.66;4486063;32;20100;-85
2022/08/21 06:25:55;;;;;;;10.57;4.87;;;;;;;21.49;69.37;98058.19;4471766;32;20085;-84
2022/08/21 06:28:20;;;;;;;11.45;5.37;;;;;;;21.76;68.22;98060.44;4471593;32;20108;-85
2022/08/21 06:30:46;;;;;;;12.48;5.40;;;;;;;22.04;67.02;98064.53;4471722;32;20364;-85
2022/08/21 06:33:11;;;;;;;11.30;5.30;;;;;;;22.11;66.56;98068.19;4486050;32;20440;-85
2022/08/21 06:35:37;;;;;;;10.95;4.75;;;;;;;21.99;66.88;98073.09;4471654;32;20085;-85
2022/08/21 06:38:02;;;;;;;11.93;5.60;;;;;;;22.16;66.27;98065.84;4485972;32;20112;-85
2022/08/21 06:40:29;;;;;;;12.70;5.35;;;;;;;22.10;66.48;98066.53;4471567;32;20114;-85
2022/08/21 06:42:54;;;;;;;12.63;5.80;;;;;;;22.42;65.09;98062.03;4485894;32;20100;-84
2022/08/21 06:45:21;;;;;;;11.88;4.82;;;;;;;22.30;65.32;98066.97;4485863;32;20080;-85
2022/08/21 06:47:46;;;;;;;11.10;5.37;;;;;;;22.31;65.71;98072.16;4471436;32;20152;-84
2022/08/21 06:50:12;;;;;;;12.20;5.70;;;;;;;22.72;64.01;98071.06;4485732;32;20168;-85
2022/08/21 06:52:38;;;;;;;12.30;5.37;;;;;;;22.33;65.63;98080.87;4488090;32;20092;-84
2022/08/21 06:55:08;;;;;;;11.52;5.75;;;;;;;22.95;63.19;98081.81;4473710;32;20157;-85
2022/08/21 06:57:34;;;;;;;12.60;5.82;;;;;;;23.31;61.84;98070.41;4487895;32;20159;-85
2022/08/21 07:00:00;;;;;;;11.45;5.40;;;;;;;22.60;64.10;98070.66;4473734;32;20412;-84
2022/08/21 07:02:25;;;;;;;11.25;5.22;;;;;;;23.13;62.38;98074.28;4473687;32;20108;-85
2022/08/21 07:04:50;;;;;;;11.75;5.10;;;;;;;22.69;63.91;98080.28;4488016;32;20097;-85
2022/08/21 07:07:16;;;;;;;11.15;5.50;;;;;;;22.80;63.28;98075.53;4487933;32;20088;-85
2022/08/21 07:09:42;;;;;;;11.50;4.50;;;;;;;22.93;62.97;98071.22;4487880;32;20148;-84
2022/08/21 07:12:09;;;;;;;11.10;5.45;;;;;;;23.46;60.88;98067.75;4487802;32;20380;-84
2022/08/21 07:14:35;;;;;;;12.02;5.72;;;;;;;23.32;61.49;98069.41;4473690;32;20262;-84
2022/08/21 07:17:00;;;;;;;11.60;5.37;;;;;;;22.97;62.67;98072.53;4487879;32;20098;-84
2022/08/21 07:19:26;;;;;;;12.77;5.68;;;;;;;23.48;61.00;98077.31;4487794;32;20084;-85
2022/08/21 07:21:54;;;;;;;12.52;5.55;;;;;;;23.12;61.94;98072.63;4487693;32;20089;-85
2022/08/21 07:24:19;;;;;;;11.27;5.15;;;;;;;23.14;62.08;98073.28;4487743;32;20137;-85
2022/08/21 07:26:45;;;;;;;14.07;5.62;;;;;;;23.74;59.98;98070.66;4487687;32;20113;-84
2022/08/21 07:29:10;;;;;;;12.60;5.25;;;;;;;23.46;60.91;98068.59;4487842;32;20104;-84
2022/08/21 07:31:35;;;;;;;11.82;5.53;;;;;;;23.66;60.29;98071.59;4487935;32;20321;-84
2022/08/21 07:34:01;;;;;;;11.95;5.20;;;;;;;23.91;59.45;98074.88;4487907;32;20153;-85
2022/08/21 07:36:27;;;;;;;11.77;5.47;;;;;;;23.96;59.57;98068.91;4473916;32;20410;-85
2022/08/21 07:38:52;;;;;;;10.50;5.07;;;;;;;24.19;58.90;98071.50;4473697;32;20174;-85
2022/08/21 07:41:21;;;;;;;12.35;5.82;;;;;;;24.02;59.22;98072.72;4487923;32;20088;-85
2022/08/21 07:43:46;;;;;;;11.77;5.82;;;;;;;23.90;59.47;98072.34;4487947;32;20084;-85
2022/08/21 07:46:12;;;;;;;12.50;5.87;;;;;;;24.11;58.80;98071.59;4473505;32;20408;-85
2022/08/21 07:48:38;;;;;;;11.73;5.85;;;;;;;24.18;58.23;98068.97;4487625;32;20080;-85
2022/08/21 07:51:08;;;;;;;10.48;5.30;;;;;;;23.93;58.92;98066.59;4487591;32;20157;-85
2022/08/21 07:53:34;;;;;;;11.65;5.15;;;;;;;24.33;57.92;98059.00;4473582;32;20109;-85
2022/08/21 07:56:00;;;;;;;11.48;4.90;;;;;;;24.36;58.17;98057.78;4473306;32;20228;-85
2022/08/21 07:58:25;;;;;;;11.18;4.97;;;;;;;24.87;56.70;98055.88;4460382;32;20088;-85
2022/08/21 08:00:51;;;;;;;12.27;5.50;;;;;;;25.10;56.02;98054.84;4487800;32;20444;-85
2022/08/21 08:03:17;;;;;;;11.50;5.20;;;;;;;24.98;56.03;98059.09;4473419;32;20127;-85
2022/08/21 08:05:42;;;;;;;11.68;5.18;;;;;;;24.64;57.14;98060.62;4487637;32;20608;-84
2022/08/21 08:08:08;;;;;;;12.13;5.20;;;;;;;25.05;56.25;98054.56;4487622;32;20092;-85
2022/08/21 08:10:34;;;;;;;11.43;5.20;;;;;;;24.90;56.17;98062.75;4473118;32;20104;-85
2022/08/21 08:13:01;;;;;;;12.77;4.90;;;;;;;24.95;56.04;98057.59;4473199;32;20126;-85
2022/08/21 08:15:27;;;;;;;11.60;4.62;;;;;;;25.06;56.00;98048.16;4487522;32;20118;-84
2022/08/21 08:17:54;;;;;;;11.95;5.62;;;;;;;25.92;53.93;98045.25;4487374;32;20541;-85
2022/08/21 08:20:21;;;;;;;11.05;4.55;;;;;;;25.50;54.71;98050.59;4473186;32;20105;-85
2022/08/21 08:22:47;;;;;;;12.32;5.28;;;;;;;25.77;53.87;98055.31;4487321;32;20638;-85
2022/08/21 08:25:14;;;;;;;12.37;4.80;;;;;;;24.97;56.33;98047.47;4473477;32;20085;-84
2022/08/21 08:27:40;;;;;;;10.48;4.78;;;;;;;25.47;54.76;98047.47;4473292;32;20080;-85
2022/08/21 08:30:07;;;;;;;10.68;4.53;;;;;;;25.64;54.16;98040.72;4473122;32;20092;-85
2022/08/21 08:32:33;;;;;;;12.25;4.80;;;;;;;25.50;54.71;98037.13;4473012;32;20741;-85
2022/08/21 08:34:59;;;;;;;11.70;4.95;;;;;;;25.58;54.47;98046.09;4473071;32;20068;-84
2022/08/21 08:37:24;;;;;;;11.70;4.78;;;;;;;26.06;53.02;98046.16;4487141;32;20543;-85
2022/08/21 08:39:49;;;;;;;11.95;4.78;;;;;;;26.28;53.13;98036.06;4472992;32;20475;-85
2022/08/21 08:42:35;;;;;;;10.32;4.55;;;;;;;26.60;52.18;98034.53;4487176;32;20371;-85
2022/08/21 08:45:11;;;;;;;11.25;4.90;;;;;;;26.52;52.58;98028.44;4473178;32;20076;-85
2022/08/21 08:47:40;;;;;;;10.85;5.03;;;;;;;26.29;52.84;98045.84;4487127;32;20080;-84
2022/08/21 08:50:09;;;;;;;9.77;4.97;;;;;;;26.46;52.04;98038.19;4470166;32;20745;-85
2022/08/21 08:52:48;;;;;;;10.52;4.87;;;;;;;26.47;52.61;98046.09;4470261;32;20486;-85
2022/08/21 08:55:23;;;;;;;11.90;4.70;;;;;;;26.79;51.77;98043.69;4470736;32;20092;-85
2022/08/21 08:57:49;;;;;;;10.27;4.93;;;;;;;26.51;52.49;98045.69;4470406;32;20084;-85
2022/08/21 09:00:18;;;;;;;10.75;4.43;;;;;;;26.54;52.26;98040.72;4470222;32;20135;-85
2022/08/21 09:02:45;;;;;;;10.95;4.95;;;;;;;27.17;50.88;98034.97;4470265;32;20151;-85
2022/08/21 09:05:22;;;;;;;11.53;5.43;;;;;;;26.74;51.47;98034.53;4471502;32;20116;-85
2022/08/21 09:08:01;;;;;;;12.65;6.03;;;;;;;26.95;50.67;98039.75;4457181;32;20109;-85
2022/08/21 09:10:52;;;;;;;13.15;5.70;;;;;;;26.73;50.21;98041.78;4470253;32;20464;-85
2022/08/21 09:13:32;;;;;;;11.75;5.72;;;;;;;26.26;52.18;98040.84;4470823;32;20177;-85
2022/08/21 09:16:04;;;;;;;11.32;5.47;;;;;;;26.70;51.62;98046.81;4471258;32;20106;-85
2022/08/21 09:18:43;;;;;;;12.02;6.00;;;;;;;26.99;50.94;98040.19;4471356;32;20104;-85
2022/08/21 09:21:11;;;;;;;11.80;5.80;;;;;;;27.09;50.27;98031.66;4470182;32;20222;-85
2022/08/21 09:24:11;;;;;;;13.75;5.40;;;;;;;27.14;50.51;98038.09;4470021;32;20156;-85
2022/08/21 09:26:47;;;;;;;10.50;4.87;;;;;;;27.49;49.85;98037.03;4471564;32;20114;-85
2022/08/21 09:29:13;;;;;;;11.38;5.37;;;;;;;27.54;49.84;98035.34;4470246;32;20145;-85
2022/08/21 09:31:38;;;;;;;13.82;6.78;;;;;;;26.93;50.74;98047.25;4470260;32;20117;-85
2022/08/21 09:34:09;;;;;;;12.82;5.65;;;;;;;26.72;50.94;98042.84;4471499;32;20120;-85
2022/08/21 09:36:39;;;;;;;12.07;6.10;;;;;;;26.66;51.87;98051.78;4470239;32;20077;-85
2022/08/21 09:39:06;;;;;;;13.50;6.00;;;;;;;27.01;50.97;98038.09;4471379;32;20093;-85
2022/08/21 09:41:35;;;;;;;11.98;5.30;;;;;;;27.01;50.34;98038.09;4456990;32;20109;-85
2022/08/21 09:44:01;;;;;;;11.35;6.03;;;;;;;27.04;50.46;98033.13;4457212;32;20109;-85
2022/08/21 09:46:28;;;;;;;12.20;5.45;;;;;;;26.66;51.85;98036.41;4470097;32;20118;-85
2022/08/21 09:48:57;;;;;;;13.27;5.68;;;;;;;26.55;52.11;98042.37;4476281;32;20110;-85
2022/08/21 09:51:25;;;;;;;12.52;5.87;;;;;;;26.83;51.57;98044.09;4459607;32;20353;-85
2022/08/21 09:54:00;;;;;;;11.90;5.87;;;;;;;26.42;52.25;98039.63;4472367;32;20131;-85
2022/08/21 09:59:15;;;;;;;13.15;6.35;;;;;;;26.86;50.89;98041.81;4474618;32;20110;-84
2022/08/21 10:01:46;;;;;;;11.85;5.87;;;;;;;27.00;50.83;98050.75;4486396;32;20144;-85
2022/08/21 10:04:12;;;;;;;11.02;5.28;;;;;;;27.13;50.60;98039.12;4472237;32;20108;-85
2022/08/21 10:06:38;;;;;;;12.20;6.35;;;;;;;27.34;50.41;98031.88;4472138;32;20389;-85
2022/08/21 10:09:12;;;;;;;12.18;6.07;;;;;;;27.82;48.98;98035.09;4471923;32;20096;-84
2022/08/21 10:11:39;;;;;;;11.43;5.97;;;;;;;27.20;50.35;98039.12;4472018;32;20108;-85
2022/08/21 10:14:10;;;;;;;15.35;6.43;;;;;;;27.33;49.95;98038.31;4472004;32;20116;-85
2022/08/21 10:17:01;;;;;;;13.05;6.43;;;;;;;27.91;48.74;98035.72;4486253;32;20356;-85
2022/08/21 10:19:43;;;;;;;11.00;5.35;;;;;;;27.95;48.40;98042.37;4477037;32;20107;-85
2022/08/21 10:22:29;;;;;;;11.20;5.18;;;;;;;28.28;47.62;98040.56;4472043;32;20115;-85
2022/08/21 10:25:25;;;;;;;12.98;6.07;;;;;;;28.46;46.88;98040.69;4472577;32;20184;-84
2022/08/21 10:28:11;;;;;;;12.77;6.03;;;;;;;27.92;47.60;98041.97;4460737;32;20088;-85
2022/08/21 10:30:41;;;;;;;11.75;6.07;;;;;;;27.99;48.04;98045.47;4474032;32;20076;-85
2022/08/21 10:33:28;;;;;;;11.52;5.50;;;;;;;28.28;47.01;98035.13;4488170;32;20116;-85
2022/08/21 10:36:51;;;;;;;12.95;5.72;;;;;;;28.16;47.62;98037.69;4488265;32;20123;-85
2022/08/21 10:39:37;;;;;;;11.18;5.43;;;;;;;28.18;47.55;98041.03;4408561;32;20272;-85
2022/08/21 10:42:25;;;;;;;11.90;5.32;;;;;;;27.90;48.69;98038.66;4408714;32;20116;-85
2022/08/21 10:45:19;;;;;;;10.95;5.50;;;;;;;27.89;48.37;98039.69;4408480;32;20107;-85
2022/08/21 10:47:53;;;;;;;11.52;5.20;;;;;;;28.04;47.46;98041.06;4378282;32;20135;-85
2022/08/21 10:50:37;;;;;;;12.27;5.90;;;;;;;28.43;46.98;98036.53;4378255;32;20082;-85
2022/08/21 10:53:30;;;;;;;11.10;5.18;;;;;;;28.13;47.43;98036.25;4378329;32;20551;-85
2022/08/21 10:56:05;;;;;;;11.77;5.32;;;;;;;28.29;47.26;98032.22;4365795;32;20541;-85
2022/08/21 10:58:36;;;;;;;12.30;5.57;;;;;;;28.07;47.93;98036.28;4378291;32;20122;-85
2022/08/21 11:01:24;;;;;;;12.25;5.22;;;;;;;28.03;47.84;98031.31;4378131;32;20123;-85
2022/08/21 11:04:01;;;;;;;;;;;;;;;28.53;46.63;98027.13;4378452;32;20082;-85
2022/08/21 11:06:29;;;;;;;10.65;5.20;;;;;;;28.77;45.92;98025.50;4378181;32;19998;-86
2022/08/21 11:09:00;;;;;;;11.90;5.75;;;;;;;28.68;45.94;98027.63;4367825;32;20110;-85
2022/08/21 11:11:44;;;;;;;12.07;4.82;;;;;;;28.42;46.73;98029.44;4380993;32;20106;-85
2022/08/21 11:14:21;;;;;;;13.18;5.05;;;;;;;28.32;47.20;98026.37;4380788;32;20137;-85
2022/08/21 11:17:07;;;;;;;11.45;5.50;;;;;;;28.66;46.65;98032.44;4393156;32;20115;-85
2022/08/21 11:19:43;;;;;;;11.05;4.80;;;;;;;28.14;47.28;98028.97;4393102;32;20099;-85
2022/08/21 11:22:19;;;;;;;14.40;5.90;;;;;;;27.55;49.15;98019.97;4380435;32;20107;-84
2022/08/21 11:25:11;;;;;;;12.10;5.37;;;;;;;28.14;47.45;98023.53;4425989;32;20122;-85
2022/08/21 11:27:44;;;;;;;11.23;4.60;;;;;;;28.30;47.02;98023.06;4463168;32;20124;-85
2022/08/21 11:30:10;;;;;;;13.00;5.20;;;;;;;28.36;46.95;98022.19;4460455;32;20137;-85
2022/08/21 11:32:57;;;;;;;10.90;5.28;;;;;;;28.35;46.83;98016.97;4473486;32;20283;-85
2022/08/21 11:35:34;;;;;;;12.18;5.12;;;;;;;27.87;48.61;98017.38;4487793;32;20137;-85